createdAt,value
2018-11-10T00:00:43.023Z,53.60
2018-11-10T00:03:11.469Z,66.87
2018-11-10T00:05:39.977Z,60.53
2018-11-10T00:08:08.476Z,58.90
2018-11-10T00:10:36.853Z,58.20
2018-11-10T00:13:05.620Z,51.90
2018-11-10T00:15:42.845Z,64.50
2018-11-10T00:18:11.312Z,63.33
2018-11-10T00:20:39.798Z,58.70
2018-11-10T00:23:08.216Z,61.20
2018-11-10T00:25:36.595Z,53.60
2018-11-10T00:28:05.064Z,55.47
2018-11-10T00:30:33.550Z,61.02
2018-11-10T00:33:01.952Z,62.13
2018-11-10T00:35:30.413Z,55.43
2018-11-10T00:37:59.038Z,57.50
2018-11-10T00:40:27.576Z,58.47
2018-11-10T00:42:56.076Z,63.37
2018-11-10T00:45:24.627Z,55.60
2018-11-10T00:47:53.084Z,56.53
2018-11-10T00:50:21.618Z,57.27
2018-11-10T00:52:50.088Z,60.93
2018-11-10T00:55:18.528Z,61.60
2018-11-10T00:57:47.060Z,58.63
2018-11-10T01:00:15.478Z,58.10
2018-11-10T01:02:44.681Z,67.97
2018-11-10T01:05:13.178Z,65.70
2018-11-10T01:07:41.808Z,60.70
2018-11-10T01:10:11.823Z,64.93
2018-11-10T01:12:40.287Z,64.97
2018-11-10T01:15:10.767Z,59.60
2018-11-10T01:17:39.280Z,60.57
2018-11-10T01:20:08.553Z,56.17
2018-11-10T01:22:37.147Z,60.90
2018-11-10T01:25:06.444Z,57.43
2018-11-10T01:27:35.081Z,62.07
2018-11-10T01:30:03.566Z,65.40
2018-11-10T01:32:32.090Z,67.00
2018-11-10T01:35:00.541Z,65.00
2018-11-10T01:37:28.967Z,57.10
2018-11-10T01:39:57.408Z,65.43
2018-11-10T01:42:25.844Z,54.10
2018-11-10T01:44:54.287Z,54.53
2018-11-10T01:47:22.751Z,61.30
2018-11-10T01:49:51.287Z,61.10
2018-11-10T01:52:19.771Z,61.80
2018-11-10T01:54:48.198Z,57.00
2018-11-10T01:57:16.639Z,55.73
2018-11-10T01:59:45.069Z,62.27
2018-11-10T02:02:17.586Z,59.50
2018-11-10T02:04:46.854Z,63.70
2018-11-10T02:07:15.376Z,63.57
2018-11-10T02:09:43.791Z,63.60
2018-11-10T02:12:12.271Z,65.10
2018-11-10T02:14:40.718Z,58.40
2018-11-10T02:17:09.210Z,63.50
2018-11-10T02:19:37.719Z,71.12
2018-11-10T02:22:06.164Z,63.67
2018-11-10T02:24:34.664Z,70.47
2018-11-10T02:27:03.180Z,63.07
2018-11-10T02:29:31.589Z,63.80
2018-11-10T02:32:00.049Z,71.87
2018-11-10T02:34:28.539Z,67.63
2018-11-10T02:36:57.028Z,71.13
2018-11-10T02:39:25.719Z,67.53
2018-11-10T02:41:54.152Z,62.53
2018-11-10T02:44:22.637Z,60.47
2018-11-10T02:46:51.071Z,65.73
2018-11-10T02:49:19.474Z,58.20
2018-11-10T02:51:47.944Z,60.70
2018-11-10T02:54:16.368Z,61.17
2018-11-10T02:56:44.888Z,60.23
2018-11-10T02:59:13.360Z,57.73
2018-11-10T03:01:41.762Z,61.45
2018-11-10T03:04:10.220Z,53.93
2018-11-10T03:06:38.647Z,64.47
2018-11-10T03:09:07.653Z,63.77
2018-11-10T03:11:36.109Z,68.57
2018-11-10T03:14:04.585Z,56.77
2018-11-10T03:16:33.095Z,56.97
2018-11-10T03:19:01.469Z,59.87
2018-11-10T03:21:29.853Z,59.50
2018-11-10T03:23:58.267Z,54.90
2018-11-10T03:26:26.672Z,59.85
2018-11-10T03:28:55.127Z,54.00
2018-11-10T03:31:23.643Z,64.07
2018-11-10T03:33:52.268Z,67.13
2018-11-10T03:36:20.789Z,60.08
2018-11-10T03:38:49.225Z,54.13
2018-11-10T03:41:17.784Z,57.03
2018-11-10T03:43:46.258Z,57.45
2018-11-10T03:46:14.745Z,58.48
2018-11-10T03:48:43.752Z,59.73
2018-11-10T03:51:12.172Z,56.60
2018-11-10T03:53:40.924Z,54.53
2018-11-10T03:56:09.514Z,56.15
2018-11-10T03:58:37.908Z,53.10
2018-11-10T04:01:06.356Z,53.93
2018-11-10T04:03:34.789Z,48.20
2018-11-10T04:06:03.215Z,60.80
2018-11-10T04:08:31.652Z,63.05
2018-11-10T04:11:00.127Z,55.05
2018-11-10T04:13:28.592Z,63.40
2018-11-10T04:15:57.058Z,52.80
2018-11-10T04:18:25.514Z,62.30
2018-11-10T04:20:53.970Z,54.73
2018-11-10T04:23:22.732Z,54.10
2018-11-10T04:25:51.243Z,57.40
2018-11-10T04:28:19.676Z,56.97
2018-11-10T04:30:48.043Z,54.00
2018-11-10T04:33:16.476Z,60.17
2018-11-10T04:35:44.914Z,53.57
2018-11-10T04:38:13.361Z,62.43
2018-11-10T04:40:41.815Z,57.00
2018-11-10T04:43:10.243Z,57.73
2018-11-10T04:45:38.679Z,59.88
2018-11-10T04:48:07.145Z,58.87
2018-11-10T04:50:35.572Z,52.13
2018-11-10T04:53:04.025Z,57.70
2018-11-10T04:55:32.437Z,60.90
2018-11-10T04:58:01.595Z,56.88
2018-11-10T05:00:30.071Z,55.33
2018-11-10T05:02:58.527Z,50.67
2018-11-10T05:05:27.000Z,57.10
2018-11-10T05:07:55.505Z,58.87
2018-11-10T05:10:23.971Z,57.62
2018-11-10T05:12:52.443Z,54.95
2018-11-10T05:15:20.887Z,59.30
2018-11-10T05:17:49.416Z,54.53
2018-11-10T05:20:17.914Z,62.90
2018-11-10T05:22:49.312Z,58.87
2018-11-10T05:25:17.751Z,61.18
2018-11-10T05:27:46.195Z,61.67
2018-11-10T05:30:14.737Z,62.38
2018-11-10T05:32:43.188Z,55.43
2018-11-10T05:35:11.716Z,53.80
2018-11-10T05:37:40.246Z,64.63
2018-11-10T05:40:10.469Z,66.37
2018-11-10T05:42:40.282Z,66.57
2018-11-10T05:45:09.033Z,71.22
2018-11-10T05:47:37.569Z,64.07
2018-11-10T05:50:06.569Z,57.07
2018-11-10T05:52:35.000Z,56.35
2018-11-10T05:55:03.530Z,58.87
2018-11-10T05:57:32.032Z,58.90
2018-11-10T06:00:00.444Z,65.03
2018-11-10T06:02:29.609Z,61.20
2018-11-10T06:04:58.014Z,65.70
2018-11-10T06:07:26.458Z,61.48
2018-11-10T06:09:55.053Z,60.13
2018-11-10T06:12:23.349Z,62.97
2018-11-10T06:14:51.824Z,64.83
2018-11-10T06:17:20.513Z,64.27
2018-11-10T06:19:49.150Z,72.67
2018-11-10T06:22:17.635Z,68.00
2018-11-10T06:24:46.225Z,62.90
2018-11-10T06:27:14.709Z,68.10
2018-11-10T06:29:43.241Z,77.27
2018-11-10T06:32:11.792Z,74.75
2018-11-10T06:34:40.234Z,74.63
2018-11-10T06:37:08.728Z,80.50
2018-11-10T06:39:37.152Z,80.67
2018-11-10T06:42:06.000Z,61.97
2018-11-10T06:44:34.495Z,77.23
2018-11-10T06:47:03.015Z,70.33
2018-11-10T06:49:31.360Z,65.67
2018-11-10T06:52:00.093Z,72.33
2018-11-10T06:54:28.728Z,69.30
2018-11-10T06:56:57.145Z,74.63
2018-11-10T06:59:25.747Z,71.80
2018-11-10T07:01:54.133Z,74.03
2018-11-10T07:04:22.574Z,68.15
2018-11-10T07:06:51.261Z,68.93
2018-11-10T07:09:19.691Z,68.20
2018-11-10T07:11:48.217Z,66.17
2018-11-10T07:14:16.736Z,71.75
2018-11-10T07:16:45.300Z,71.53
2018-11-10T07:19:13.733Z,77.58
2018-11-10T07:21:42.231Z,70.03
2018-11-10T07:24:10.693Z,71.63
2018-11-10T07:26:39.111Z,66.55
2018-11-10T07:29:07.570Z,60.53
2018-11-10T07:31:36.060Z,71.03
2018-11-10T07:34:04.691Z,72.60
2018-11-10T07:36:33.251Z,75.07
2018-11-10T07:39:01.676Z,62.37
2018-11-10T07:41:30.307Z,76.90
2018-11-10T07:43:58.748Z,68.62
2018-11-10T07:46:27.202Z,77.00
2018-11-10T07:48:55.635Z,86.30
2018-11-10T07:51:24.119Z,69.77
2018-11-10T07:53:52.566Z,77.50
2018-11-10T07:56:21.013Z,77.80
2018-11-10T07:58:49.475Z,71.07
2018-11-10T08:01:17.927Z,68.17
2018-11-10T08:03:46.340Z,67.53
2018-11-10T08:06:14.848Z,74.07
2018-11-10T08:08:43.352Z,75.67
2018-11-10T08:11:11.885Z,68.60
2018-11-10T08:13:40.291Z,63.93
2018-11-10T08:16:08.691Z,69.00
2018-11-10T08:18:37.165Z,77.57
2018-11-10T08:21:06.200Z,68.37
2018-11-10T08:23:34.699Z,65.30
2018-11-10T08:26:03.143Z,62.77
2018-11-10T08:28:31.607Z,75.13
2018-11-10T08:31:02.971Z,69.70
2018-11-10T08:33:31.468Z,64.90
2018-11-10T08:35:59.944Z,68.57
2018-11-10T08:38:28.450Z,75.30
2018-11-10T08:40:57.151Z,72.43
2018-11-10T08:43:25.973Z,71.10
2018-11-10T08:45:54.457Z,72.65
2018-11-10T08:48:23.958Z,71.33
2018-11-10T08:50:52.459Z,70.77
2018-11-10T08:53:26.848Z,75.78
2018-11-10T08:55:57.879Z,65.08
2018-11-10T08:58:26.477Z,64.53
2018-11-10T09:00:55.000Z,56.40
2018-11-10T09:03:23.563Z,64.40
2018-11-10T09:05:52.130Z,57.90
2018-11-10T09:08:25.878Z,58.20
2018-11-10T09:10:54.998Z,67.00
2018-11-10T09:13:25.918Z,56.53
2018-11-10T09:15:55.913Z,53.13
2018-11-10T09:18:26.540Z,60.50
2018-11-10T09:20:54.976Z,63.70
2018-11-10T09:23:23.517Z,58.17
2018-11-10T09:25:51.979Z,54.60
2018-11-10T09:28:20.387Z,53.05
2018-11-10T09:30:48.867Z,48.60
2018-11-10T09:33:17.399Z,66.92
2018-11-10T09:35:45.873Z,54.67
2018-11-10T09:38:14.501Z,50.20
2018-11-10T09:40:43.231Z,55.17
2018-11-10T09:43:11.784Z,47.90
2018-11-10T09:45:40.173Z,51.10
2018-11-10T09:48:08.593Z,40.75
2018-11-10T09:50:37.079Z,47.20
2018-11-10T09:53:05.628Z,48.78
2018-11-10T09:55:34.232Z,42.97
2018-11-10T09:58:02.791Z,39.57
2018-11-10T10:00:31.293Z,44.05
2018-11-10T10:02:59.749Z,40.53
2018-11-10T10:05:28.217Z,38.40
2018-11-10T10:07:56.702Z,45.40
2018-11-10T10:10:25.168Z,46.13
2018-11-10T10:12:53.599Z,40.58
2018-11-10T10:15:22.515Z,38.13
2018-11-10T10:17:52.118Z,42.00
2018-11-10T10:20:20.765Z,35.10
2018-11-10T10:22:49.741Z,38.87
2018-11-10T10:25:18.764Z,35.50
2018-11-10T10:27:47.872Z,32.90
2018-11-10T10:30:24.994Z,36.77
2018-11-10T10:32:53.460Z,38.37
2018-11-10T10:35:22.255Z,31.37
2018-11-10T10:37:51.491Z,33.80
2018-11-10T10:40:20.118Z,36.97
2018-11-10T10:42:49.041Z,33.20
2018-11-10T10:45:20.993Z,33.40
2018-11-10T10:47:49.624Z,30.08
2018-11-10T10:50:19.393Z,29.20
2018-11-10T10:52:47.860Z,34.03
2018-11-10T10:55:17.463Z,34.10
2018-11-10T10:57:46.857Z,31.70
2018-11-10T11:00:20.553Z,35.13
2018-11-10T11:02:54.278Z,33.30
2018-11-10T11:05:28.852Z,34.17
2018-11-10T11:07:57.388Z,34.27
2018-11-10T11:10:25.879Z,32.83
2018-11-10T11:12:54.303Z,28.13
2018-11-10T11:18:16.806Z,30.20
2018-11-10T11:20:45.394Z,30.07
2018-11-10T11:23:14.785Z,29.00
2018-11-10T11:25:43.189Z,33.97
2018-11-10T11:28:11.932Z,29.97
2018-11-10T11:30:40.611Z,28.03
2018-11-10T11:33:09.376Z,29.70
2018-11-10T11:35:38.462Z,27.47
2018-11-10T11:38:07.954Z,32.67
2018-11-10T11:40:36.737Z,26.00
2018-11-10T11:43:05.752Z,24.93
2018-11-10T11:45:34.374Z,27.23
2018-11-10T11:48:03.229Z,24.90
2018-11-10T11:50:31.771Z,22.02
2018-11-10T11:53:00.559Z,26.43
2018-11-10T11:55:29.099Z,26.80
2018-11-10T11:57:57.731Z,25.63
2018-11-10T12:00:26.124Z,23.70
2018-11-10T12:02:54.618Z,25.65
2018-11-10T12:05:23.100Z,27.70
2018-11-10T12:07:51.577Z,25.57
2018-11-10T12:10:27.471Z,23.60
2018-11-10T12:12:56.018Z,26.13
2018-11-10T12:15:34.506Z,22.07
2018-11-10T12:18:03.153Z,23.13
2018-11-10T12:20:33.161Z,24.10
2018-11-10T12:23:01.752Z,21.52
2018-11-10T12:25:30.156Z,22.17
2018-11-10T12:27:58.655Z,20.75
2018-11-10T12:30:27.104Z,21.90
2018-11-10T12:32:55.775Z,20.23
2018-11-10T12:35:24.263Z,17.30
2018-11-10T12:37:53.542Z,20.20
2018-11-10T12:40:22.193Z,21.65
2018-11-10T12:42:59.722Z,22.27
2018-11-10T12:45:31.606Z,20.17
2018-11-10T12:48:03.253Z,21.97
2018-11-10T12:50:32.140Z,21.37
2018-11-10T12:53:05.056Z,22.32
2018-11-10T12:55:34.689Z,17.57
2018-11-10T12:58:04.104Z,22.40
2018-11-10T13:00:33.888Z,19.10
2018-11-10T13:03:08.274Z,21.13
2018-11-10T13:05:36.849Z,21.35
2018-11-10T13:08:06.631Z,21.30
2018-11-10T13:10:37.690Z,22.13
2018-11-10T13:13:09.041Z,19.00
2018-11-10T13:15:37.669Z,21.23
2018-11-10T13:18:06.217Z,19.67
2018-11-10T13:20:34.650Z,20.37
2018-11-10T13:23:03.142Z,20.82
2018-11-10T13:25:31.669Z,23.80
2018-11-10T13:28:00.134Z,22.93
2018-11-10T13:30:28.543Z,20.33
2018-11-10T13:32:57.023Z,22.80
2018-11-10T13:35:25.484Z,17.47
2018-11-10T13:37:53.983Z,20.37
2018-11-10T13:40:22.525Z,19.40
2018-11-10T13:42:51.109Z,15.50
2018-11-10T13:45:19.606Z,19.40
2018-11-10T13:47:48.153Z,16.27
2018-11-10T13:50:16.637Z,16.50
2018-11-10T13:52:45.459Z,18.03
2018-11-10T13:55:14.064Z,14.78
2018-11-10T13:57:42.491Z,18.17
2018-11-10T14:00:13.484Z,15.98
2018-11-10T14:02:42.135Z,15.97
2018-11-10T14:05:11.189Z,14.90
2018-11-10T14:07:39.883Z,18.73
2018-11-10T14:10:10.755Z,17.03
2018-11-10T14:12:39.748Z,13.47
2018-11-10T14:15:08.393Z,17.47
2018-11-10T14:17:36.964Z,13.78
2018-11-10T14:20:07.936Z,17.90
2018-11-10T14:22:36.658Z,13.17
2018-11-10T14:25:06.834Z,15.73
2018-11-10T14:27:35.373Z,18.27
2018-11-10T14:30:04.635Z,15.07
2018-11-10T14:35:10.260Z,15.27
2018-11-10T14:37:40.512Z,15.18
2018-11-10T14:40:13.342Z,13.53
2018-11-10T14:42:42.498Z,13.25
2018-11-10T14:45:12.963Z,14.47
2018-11-10T14:47:43.065Z,16.93
2018-11-10T14:50:12.798Z,13.72
2018-11-10T14:52:43.045Z,16.00
2018-11-10T14:55:12.017Z,17.40
2018-11-10T14:57:40.690Z,22.37
2018-11-10T15:00:15.419Z,18.83
2018-11-10T15:02:43.966Z,28.63
2018-11-10T15:05:13.133Z,29.57
2018-11-10T15:07:42.606Z,25.88
2018-11-10T15:10:13.825Z,26.57
2018-11-10T15:12:44.063Z,24.70
2018-11-10T15:15:14.468Z,20.17
2018-11-10T15:17:44.688Z,22.13
2018-11-10T15:20:14.656Z,20.60
2018-11-10T15:22:43.763Z,20.72
2018-11-10T15:25:15.053Z,17.57
2018-11-10T15:27:44.004Z,20.83
2018-11-10T15:30:16.797Z,21.70
2018-11-10T15:32:46.753Z,16.03
2018-11-10T15:35:17.232Z,15.50
2018-11-10T15:37:47.664Z,17.17
2018-11-10T15:40:16.977Z,17.47
2018-11-10T15:42:45.781Z,19.60
2018-11-10T15:45:16.908Z,20.83
2018-11-10T15:47:45.959Z,20.87
2018-11-10T15:50:15.483Z,18.67
2018-11-10T15:52:45.189Z,18.05
2018-11-10T15:55:14.475Z,18.92
2018-11-10T15:57:43.227Z,19.90
2018-11-10T16:00:14.340Z,16.90
2018-11-10T16:02:43.403Z,18.87
2018-11-10T16:05:13.663Z,19.27
2018-11-10T16:07:42.148Z,17.00
2018-11-10T16:10:10.820Z,19.40
2018-11-10T16:12:39.711Z,21.05
2018-11-10T16:15:10.953Z,19.20
2018-11-10T16:17:39.924Z,20.90
2018-11-10T16:20:12.288Z,19.10
2018-11-10T16:22:42.247Z,19.97
2018-11-10T16:25:11.264Z,20.63
2018-11-10T16:27:40.092Z,17.77
2018-11-10T16:30:11.814Z,24.15
2018-11-10T16:32:40.745Z,20.63
2018-11-10T16:35:09.995Z,17.33
2018-11-10T16:37:44.527Z,18.77
2018-11-10T16:40:17.733Z,18.80
2018-11-10T16:42:47.123Z,16.53
2018-11-10T16:45:16.587Z,16.43
2018-11-10T16:47:45.073Z,18.00
2018-11-10T16:50:13.770Z,25.70
2018-11-10T16:52:43.077Z,13.50
2018-11-10T16:55:11.985Z,15.80
2018-11-10T16:57:40.501Z,14.37
2018-11-10T17:00:13.050Z,15.53
2018-11-10T17:02:41.657Z,15.07
2018-11-10T17:05:11.010Z,16.73
2018-11-10T17:07:40.953Z,17.77
2018-11-10T17:10:21.481Z,18.12
2018-11-10T17:12:50.974Z,20.63
2018-11-10T17:15:19.538Z,17.47
2018-11-10T17:17:50.020Z,17.20
2018-11-10T17:20:18.491Z,22.87
2018-11-10T17:22:47.307Z,19.83
2018-11-10T17:25:16.712Z,18.43
2018-11-10T17:27:45.226Z,18.20
2018-11-10T17:30:17.409Z,20.30
2018-11-10T17:32:45.820Z,18.60
2018-11-10T17:35:15.039Z,19.63
2018-11-10T17:37:43.783Z,22.97
2018-11-10T17:40:13.647Z,21.00
2018-11-10T17:42:42.077Z,21.70
2018-11-10T17:45:12.285Z,22.13
2018-11-10T17:47:41.105Z,14.37
2018-11-10T17:50:10.836Z,16.77
2018-11-10T17:52:39.845Z,17.62
2018-11-10T17:55:09.440Z,17.33
2018-11-10T17:57:37.925Z,19.03
2018-11-10T18:00:06.413Z,14.47
2018-11-10T18:02:34.797Z,17.17
2018-11-10T18:05:03.204Z,14.03
2018-11-10T18:07:32.182Z,19.43
2018-11-10T18:10:00.720Z,17.13
2018-11-10T18:12:29.140Z,16.10
2018-11-10T18:14:57.860Z,15.73
2018-11-10T18:17:26.460Z,17.35
2018-11-10T18:19:55.084Z,16.60
2018-11-10T18:22:24.450Z,15.10
2018-11-10T18:24:52.899Z,12.53
2018-11-10T18:27:21.408Z,11.33
2018-11-10T18:29:49.972Z,14.17
2018-11-10T18:32:18.788Z,14.45
2018-11-10T18:34:47.750Z,13.90
2018-11-10T18:37:16.201Z,15.57
2018-11-10T18:39:45.658Z,15.78
2018-11-10T18:42:14.365Z,15.27
2018-11-10T18:44:42.944Z,14.13
2018-11-10T18:47:11.417Z,14.23
2018-11-10T18:49:40.322Z,14.70
2018-11-10T18:52:12.880Z,15.90
2018-11-10T18:54:41.305Z,13.47
2018-11-10T18:57:09.894Z,13.80
2018-11-10T18:59:38.783Z,13.67
2018-11-10T19:02:07.215Z,15.17
2018-11-10T19:04:35.656Z,16.45
2018-11-10T19:07:04.177Z,17.77
2018-11-10T19:09:32.701Z,16.70
2018-11-10T19:12:01.168Z,16.90
2018-11-10T19:14:29.542Z,20.45
2018-11-10T19:16:57.962Z,14.53
2018-11-10T19:19:26.394Z,20.30
2018-11-10T19:21:54.862Z,15.20
2018-11-10T19:24:23.292Z,21.10
2018-11-10T19:26:51.761Z,17.57
2018-11-10T19:29:20.125Z,19.77
2018-11-10T19:31:48.572Z,17.77
2018-11-10T19:34:17.003Z,21.47
2018-11-10T19:36:45.826Z,21.57
2018-11-10T19:39:14.342Z,16.90
2018-11-10T19:41:43.101Z,19.70
2018-11-10T19:44:11.669Z,17.17
2018-11-10T19:46:44.213Z,19.77
2018-11-10T19:49:12.739Z,20.17
2018-11-10T19:51:41.595Z,17.13
2018-11-10T19:54:09.794Z,18.10
2018-11-10T19:56:38.232Z,19.03
2018-11-10T19:59:06.849Z,18.35
2018-11-10T20:01:38.819Z,17.60
2018-11-10T20:04:13.744Z,15.27
2018-11-10T20:06:47.202Z,14.83
2018-11-10T20:09:33.492Z,14.20
2018-11-10T20:12:04.689Z,15.50
2018-11-10T20:14:34.655Z,12.13
2018-11-10T20:17:03.396Z,15.87
2018-11-10T20:19:32.022Z,14.20
2018-11-10T20:22:03.893Z,17.47
2018-11-10T20:24:32.320Z,13.30
2018-11-10T20:27:00.976Z,18.23
2018-11-10T20:29:29.380Z,10.63
2018-11-10T20:31:58.135Z,12.73
2018-11-10T20:34:27.076Z,11.70
2018-11-10T20:36:55.798Z,14.10
2018-11-10T20:39:24.302Z,9.10
2018-11-10T20:41:52.860Z,9.87
2018-11-10T20:44:21.324Z,6.25
2018-11-10T20:46:49.824Z,7.00
2018-11-10T20:49:18.391Z,5.70
2018-11-10T20:51:46.868Z,6.97
2018-11-10T20:54:15.442Z,6.60
2018-11-10T20:56:44.676Z,7.00
2018-11-10T20:59:13.147Z,5.63
2018-11-10T21:01:41.714Z,5.60
2018-11-10T21:04:10.515Z,5.13
2018-11-10T21:06:39.084Z,6.10
2018-11-10T21:09:10.206Z,6.50
2018-11-10T21:11:38.628Z,6.50
2018-11-10T21:14:07.861Z,5.40
2018-11-10T21:16:36.382Z,4.17
2018-11-10T21:19:05.156Z,5.70
2018-11-10T21:21:34.130Z,4.42
2018-11-10T21:24:03.553Z,6.15
2018-11-10T21:26:32.066Z,4.17
2018-11-10T21:29:00.634Z,5.92
2018-11-10T21:31:29.056Z,5.17
2018-11-10T21:33:57.704Z,5.20
2018-11-10T21:36:26.127Z,4.77
2018-11-10T21:38:54.660Z,6.33
2018-11-10T21:41:23.108Z,6.20
2018-11-10T21:43:51.647Z,6.58
2018-11-10T21:46:20.112Z,7.42
2018-11-10T21:48:49.018Z,7.27
2018-11-10T21:51:20.583Z,7.80
2018-11-10T21:53:48.973Z,6.63
2018-11-10T21:56:17.381Z,8.40
2018-11-10T21:58:45.912Z,8.67
2018-11-10T22:01:14.578Z,11.93
2018-11-10T22:03:43.081Z,12.10
2018-11-10T22:06:11.488Z,13.08
2018-11-10T22:08:39.988Z,13.80
2018-11-10T22:11:08.894Z,17.00
2018-11-10T22:13:37.325Z,18.98
2018-11-10T22:16:05.730Z,24.10
2018-11-10T22:18:34.159Z,24.63
2018-11-10T22:21:04.036Z,24.12
2018-11-10T22:23:32.623Z,23.80
2018-11-10T22:26:01.216Z,24.70
2018-11-10T22:28:29.689Z,20.32
2018-11-10T22:30:58.196Z,24.27
2018-11-10T22:33:26.571Z,22.07
2018-11-10T22:35:55.562Z,20.30
2018-11-10T22:38:24.580Z,21.30
2018-11-10T22:40:53.039Z,19.60
2018-11-10T22:43:28.353Z,18.73
2018-11-10T22:45:57.712Z,20.80
2018-11-10T22:48:26.217Z,17.97
2018-11-10T22:50:54.717Z,26.53
2018-11-10T22:53:23.236Z,23.77
2018-11-10T22:55:51.688Z,24.27
2018-11-10T22:58:20.172Z,21.87
2018-11-10T23:00:54.129Z,24.97
2018-11-10T23:03:22.667Z,20.30
2018-11-10T23:05:51.064Z,20.57
2018-11-10T23:08:19.473Z,19.80
2018-11-10T23:10:47.873Z,18.67
2018-11-10T23:13:16.455Z,17.37
2018-11-10T23:15:44.949Z,20.73
2018-11-10T23:18:13.435Z,20.40
2018-11-10T23:20:42.025Z,28.93
2018-11-10T23:23:10.766Z,19.33
2018-11-10T23:25:39.204Z,19.62
2018-11-10T23:28:07.883Z,18.90
2018-11-10T23:30:36.747Z,17.27
2018-11-10T23:33:05.400Z,25.27
2018-11-10T23:35:33.837Z,23.03
2018-11-10T23:38:02.320Z,19.67
2018-11-10T23:40:30.939Z,22.83
2018-11-10T23:43:00.121Z,25.23
2018-11-10T23:45:28.532Z,22.57
2018-11-10T23:47:56.925Z,25.37
2018-11-10T23:50:25.475Z,23.30
2018-11-10T23:52:54.069Z,22.47
2018-11-10T23:55:22.565Z,23.87
2018-11-10T23:57:51.124Z,18.80
